Time;durP1;ratioP1;P1;durP2;ratioP2;P2;SDS_P1;SDS_P2;PMS_P1;PMS_P2;Temp;Humidity;BMP_temperature;BMP_pressure;BME280_temperature;BME280_humidity;BME280_pressure;Samples;Min_cycle;Max_cycle;Signal;HPM_P1;HPM_P2
2024/01/29 00:00:19;;;;;;;19.45;8.18;;;;;;;3.49;94.92;102312.38;5003731;28;20105;-75
2024/01/29 00:02:45;;;;;;;20.00;8.00;;;;;;;3.48;95.13;102307.09;4999320;28;20477;-75
2024/01/29 00:05:11;;;;;;;20.48;8.13;;;;;;;3.45;95.45;102308.03;4989413;28;20022;-75
2024/01/29 00:07:36;;;;;;;20.63;8.25;;;;;;;3.45;95.19;102304.50;4989315;28;20434;-75
2024/01/29 00:10:01;;;;;;;23.85;8.15;;;;;;;3.42;95.26;102304.56;4990491;28;20033;-75
2024/01/29 00:12:26;;;;;;;17.65;7.00;;;;;;;3.41;95.31;102301.03;4988692;28;20030;-76
2024/01/29 00:14:52;;;;;;;21.48;8.68;;;;;;;3.41;96.34;102301.03;5002773;28;20026;-75
2024/01/29 00:17:17;;;;;;;19.48;8.23;;;;;;;3.42;95.35;102308.09;4986364;28;20026;-76
2024/01/29 00:19:43;;;;;;;21.23;8.98;;;;;;;3.41;95.60;102310.78;4982983;28;20026;-75
2024/01/29 00:22:08;;;;;;;18.88;8.00;;;;;;;3.38;95.78;102305.53;5003815;28;20029;-75
2024/01/29 00:24:33;;;;;;;22.58;8.43;;;;;;;3.37;95.84;102309.97;4983613;28;20026;-75
2024/01/29 00:26:59;;;;;;;22.85;8.10;;;;;;;3.37;96.21;102303.78;4988561;28;20052;-75
2024/01/29 00:29:24;;;;;;;20.70;8.68;;;;;;;3.38;96.03;102309.06;5005672;28;20022;-75
2024/01/29 00:31:49;;;;;;;20.20;9.00;;;;;;;3.36;96.40;102302.03;5005556;28;20025;-75
2024/01/29 00:34:15;;;;;;;19.38;7.90;;;;;;;3.36;96.40;102300.25;4991737;28;20068;-75
2024/01/29 00:36:40;;;;;;;20.60;8.80;;;;;;;3.35;96.22;102301.16;5006082;28;20485;-75
2024/01/29 00:39:09;;;;;;;20.80;7.72;;;;;;;3.33;96.34;102295.00;4988591;28;20382;-75
2024/01/29 00:41:35;;;;;;;21.25;8.45;;;;;;;3.32;96.26;102287.91;5002807;28;20121;-75
2024/01/29 00:44:00;;;;;;;20.58;9.05;;;;;;;3.28;96.64;102281.81;4990150;28;20401;-75
2024/01/29 00:46:26;;;;;;;21.15;8.40;;;;;;;3.28;96.61;102291.53;5005064;28;20033;-75
2024/01/29 00:48:52;;;;;;;20.45;8.48;;;;;;;3.28;96.63;102287.13;5003230;28;20030;-75
2024/01/29 00:51:17;;;;;;;20.85;8.15;;;;;;;3.27;97.13;102296.00;5003374;28;20398;-75
2024/01/29 00:53:42;;;;;;;22.35;8.50;;;;;;;3.25;97.39;102292.50;5005378;28;20022;-75
2024/01/29 00:56:07;;;;;;;19.55;7.55;;;;;;;3.27;97.09;102289.81;4988834;28;20494;-75
2024/01/29 00:58:33;;;;;;;20.55;8.73;;;;;;;3.25;97.38;102291.59;4995983;28;20073;-75
2024/01/29 01:00:59;;;;;;;21.58;7.70;;;;;;;3.24;97.58;102293.38;5026160;28;20055;-75
2024/01/29 01:03:24;;;;;;;21.75;8.52;;;;;;;3.24;97.55;102293.38;5007198;28;20018;-75
2024/01/29 01:05:49;;;;;;;19.45;7.43;;;;;;;3.24;97.72;102311.13;5008019;28;20117;-75
2024/01/29 01:08:15;;;;;;;20.75;8.40;;;;;;;3.27;97.67;102311.06;5005612;28;20018;-75
2024/01/29 01:10:40;;;;;;;19.73;7.65;;;;;;;3.23;97.54;102310.22;4989715;28;24081;-75
2024/01/29 01:13:05;;;;;;;21.08;8.02;;;;;;;3.20;97.44;102312.09;4990093;28;20119;-75
2024/01/29 01:15:31;;;;;;;21.02;8.77;;;;;;;3.15;98.39;102318.34;5005857;28;20040;-75
2024/01/29 01:17:56;;;;;;;21.25;8.23;;;;;;;3.10;97.90;102328.16;5005038;28;20029;-75
2024/01/29 01:20:23;;;;;;;20.67;7.50;;;;;;;3.06;98.31;102318.53;5008073;28;20026;-75
2024/01/29 01:22:49;;;;;;;20.40;7.38;;;;;;;3.00;98.18;102323.94;4991778;28;20022;-75
2024/01/29 01:25:14;;;;;;;19.65;8.15;;;;;;;2.98;98.60;102331.06;4991027;28;20029;-75
2024/01/29 01:27:39;;;;;;;26.48;8.77;;;;;;;2.93;98.81;102330.28;5007493;28;20081;-75
2024/01/29 01:30:06;;;;;;;19.75;7.78;;;;;;;2.92;99.17;102321.41;5010313;28;20026;-75
2024/01/29 01:32:31;;;;;;;18.48;7.78;;;;;;;2.89;99.23;102328.56;5009129;28;20049;-75
2024/01/29 01:34:56;;;;;;;20.98;8.43;;;;;;;2.82;98.98;102330.44;5007332;28;20130;-75
2024/01/29 01:37:22;;;;;;;20.00;8.10;;;;;;;2.80;99.51;102321.66;4986971;28;20095;-75
2024/01/29 01:39:52;;;;;;;21.17;8.23;;;;;;;2.75;99.85;102329.69;5006109;28;20029;-75
2024/01/29 01:42:17;;;;;;;21.35;8.35;;;;;;;2.75;99.94;102323.50;5005948;28;20021;-75
2024/01/29 01:44:46;;;;;;;20.90;8.02;;;;;;;2.75;100.00;102324.38;4987822;28;20026;-75
2024/01/29 01:47:11;;;;;;;22.83;8.05;;;;;;;2.75;100.00;102329.69;5007242;28;20078;-75
2024/01/29 01:49:37;;;;;;;23.52;7.72;;;;;;;2.72;100.00;102329.72;5004687;28;20045;-75
2024/01/29 01:52:03;;;;;;;20.83;7.70;;;;;;;2.71;100.00;102325.34;5004221;28;20433;-75
2024/01/29 01:54:29;;;;;;;20.58;7.82;;;;;;;2.73;100.00;102331.47;4988461;28;20029;-75
2024/01/29 01:56:55;;;;;;;19.88;7.95;;;;;;;2.77;100.00;102330.53;4989291;28;20026;-75
2024/01/29 01:59:21;;;;;;;20.05;7.13;;;;;;;2.80;100.00;102327.81;5003094;28;20053;-75
2024/01/29 02:01:46;;;;;;;17.90;8.35;;;;;;;2.83;100.00;102332.22;5001630;28;20034;-75
2024/01/29 02:04:12;;;;;;;17.17;6.85;;;;;;;2.83;100.00;102332.22;5001577;28;20390;-75
2024/01/29 02:06:37;;;;;;;18.40;7.45;;;;;;;2.83;100.00;102326.91;4976888;28;20044;-75
2024/01/29 02:09:03;;;;;;;21.65;7.97;;;;;;;2.81;100.00;102331.34;5005443;28;20045;-75
2024/01/29 02:11:28;;;;;;;22.33;8.38;;;;;;;2.77;100.00;102333.19;5003306;28;20167;-75
2024/01/29 02:13:53;;;;;;;20.40;7.35;;;;;;;2.78;100.00;102323.44;5006058;28;20022;-75
2024/01/29 02:16:19;;;;;;;18.05;7.25;;;;;;;2.76;100.00;102323.47;4987749;28;20449;-75
2024/01/29 02:18:44;;;;;;;20.30;8.23;;;;;;;2.77;100.00;102321.72;4992361;28;20061;-75
2024/01/29 02:21:10;;;;;;;19.63;7.82;;;;;;;2.78;100.00;102323.44;5021729;28;20057;-74
2024/01/29 02:23:35;;;;;;;17.95;7.35;;;;;;;2.81;100.00;102323.38;5019414;28;20128;-74
2024/01/29 02:26:00;;;;;;;20.42;8.05;;;;;;;2.82;100.00;102325.13;5008246;28;20089;-75
2024/01/29 02:28:29;;;;;;;20.40;7.50;;;;;;;2.80;100.00;102321.66;5008654;28;20056;-74
2024/01/29 02:30:54;;;;;;;20.42;7.68;;;;;;;2.83;100.00;102324.25;5024644;28;20052;-74
2024/01/29 02:33:19;;;;;;;20.10;7.20;;;;;;;2.82;100.00;102330.44;5008059;28;20037;-74
2024/01/29 02:35:48;;;;;;;19.52;7.20;;;;;;;2.83;100.00;102320.72;5027941;28;20037;-74
2024/01/29 02:38:14;;;;;;;20.77;6.88;;;;;;;2.82;100.00;102319.84;5029823;28;20124;-75
2024/01/29 02:40:39;;;;;;;20.50;7.43;;;;;;;2.83;100.00;102318.06;5009168;28;20116;-75
2024/01/29 02:43:05;;;;;;;17.50;6.30;;;;;;;2.82;100.00;102322.47;4991317;28;20100;-75
2024/01/29 02:45:30;;;;;;;19.38;7.65;;;;;;;2.82;100.00;102329.59;5011110;28;20037;-75
2024/01/29 02:47:55;;;;;;;19.45;7.28;;;;;;;2.79;100.00;102342.00;4993933;28;20065;-75
2024/01/29 02:50:22;;;;;;;18.90;6.70;;;;;;;2.76;100.00;102319.94;5011269;28;20042;-75
2024/01/29 02:52:48;;;;;;;20.45;7.60;;;;;;;2.76;100.00;102326.13;4990999;28;20450;-75
2024/01/29 02:55:13;;;;;;;18.02;6.55;;;;;;;2.75;100.00;102324.38;5007456;28;20137;-75
2024/01/29 02:57:39;;;;;;;20.35;6.85;;;;;;;2.71;100.00;102338.59;4993728;28;20025;-75
2024/01/29 03:00:05;;;;;;;18.92;6.30;;;;;;;2.66;100.00;102318.34;5007437;28;20160;-75
2024/01/29 03:02:30;;;;;;;19.15;7.45;;;;;;;2.66;100.00;102319.22;5009832;28;20025;-75
2024/01/29 03:04:55;;;;;;;18.25;7.65;;;;;;;2.65;100.00;102316.59;4990060;28;20488;-75
2024/01/29 03:07:21;;;;;;;19.48;6.68;;;;;;;2.65;100.00;102320.13;4992747;28;20037;-75
2024/01/29 03:09:46;;;;;;;19.02;6.30;;;;;;;2.65;100.00;102324.53;4990350;28;20049;-75
2024/01/29 03:12:11;;;;;;;17.48;6.72;;;;;;;2.64;100.00;102322.81;5008567;28;20055;-75
2024/01/29 03:14:37;;;;;;;19.15;7.30;;;;;;;2.62;100.00;102325.47;5012144;28;20022;-75
2024/01/29 03:17:03;;;;;;;19.20;7.13;;;;;;;2.66;100.00;102326.31;4993588;28;20540;-75
2024/01/29 03:19:28;;;;;;;16.65;6.15;;;;;;;2.67;100.00;102320.97;5009549;28;20028;-75
2024/01/29 03:21:53;;;;;;;16.77;6.28;;;;;;;2.70;100.00;102320.91;5010363;28;20033;-75
2024/01/29 03:24:19;;;;;;;18.08;6.53;;;;;;;2.71;100.00;102322.69;5010207;28;20026;-75
2024/01/29 03:26:47;;;;;;;17.60;6.88;;;;;;;2.71;100.00;102312.06;4993955;28;20093;-75
2024/01/29 03:29:12;;;;;;;19.55;7.05;;;;;;;2.70;100.00;102320.91;4987431;28;20037;-75
2024/01/29 03:31:37;;;;;;;19.17;6.43;;;;;;;2.74;100.00;102317.31;4991391;28;20473;-75
2024/01/29 03:34:03;;;;;;;20.65;7.53;;;;;;;2.76;100.00;102330.56;5007718;28;20026;-75
2024/01/29 03:36:28;;;;;;;17.58;6.75;;;;;;;2.77;100.00;102322.56;4990688;28;20048;-75
2024/01/29 03:38:53;;;;;;;17.25;6.93;;;;;;;2.76;100.00;102325.25;4990954;28;20068;-75
2024/01/29 03:41:18;;;;;;;19.13;6.85;;;;;;;2.71;100.00;102335.06;5005512;28;20105;-75
2024/01/29 03:43:44;;;;;;;20.45;6.93;;;;;;;2.71;100.00;102333.31;4993023;28;20018;-75
2024/01/29 03:46:09;;;;;;;17.45;6.25;;;;;;;2.69;100.00;102334.22;4992104;28;20044;-75
2024/01/29 03:48:34;;;;;;;16.60;6.38;;;;;;;2.70;100.00;102333.31;5012223;28;20022;-75
2024/01/29 03:50:59;;;;;;;20.92;7.30;;;;;;;2.71;100.00;102333.31;4989736;28;20087;-75
2024/01/29 03:53:25;;;;;;;19.80;7.47;;;;;;;2.73;100.00;102336.78;5008332;28;20029;-75
2024/01/29 03:55:52;;;;;;;18.95;7.05;;;;;;;2.76;100.00;102333.22;4995143;28;20113;-75
2024/01/29 03:58:17;;;;;;;17.25;6.25;;;;;;;2.76;100.00;102343.84;4993279;28;20073;-75
2024/01/29 04:00:43;;;;;;;17.45;6.47;;;;;;;2.72;100.00;102342.13;5010787;28;20044;-75
2024/01/29 04:03:08;;;;;;;19.35;6.40;;;;;;;2.73;100.00;102339.44;4990281;28;20414;-75
2024/01/29 04:05:33;;;;;;;16.67;6.05;;;;;;;2.73;100.00;102341.22;4996020;28;20037;-75
2024/01/29 04:07:59;;;;;;;15.68;6.35;;;;;;;2.71;100.00;102340.38;4998327;28;20485;-75
2024/01/29 04:10:25;;;;;;;17.30;5.93;;;;;;;2.71;100.00;102341.25;4994353;28;20144;-75
2024/01/29 04:12:50;;;;;;;19.02;7.38;;;;;;;2.69;100.00;102340.38;5014748;28;20180;-75
2024/01/29 04:15:16;;;;;;;18.75;6.45;;;;;;;2.71;100.00;102343.03;5012193;28;20109;-75
2024/01/29 04:17:41;;;;;;;17.88;6.68;;;;;;;2.67;100.00;102342.22;5011123;28;20344;-75
2024/01/29 04:20:07;;;;;;;19.55;6.55;;;;;;;2.65;100.00;102341.38;5011397;28;20021;-75
2024/01/29 04:22:33;;;;;;;20.25;7.55;;;;;;;2.67;100.00;102351.97;5010166;28;20105;-75
2024/01/29 04:25:04;;;;;;;17.27;6.40;;;;;;;2.64;100.00;102350.22;5011311;28;20171;-75
2024/01/29 04:27:29;;;;;;;19.60;6.45;;;;;;;2.65;100.00;102349.34;5006551;28;20042;-75
2024/01/29 04:29:54;;;;;;;20.27;6.60;;;;;;;2.66;100.00;102350.19;4986971;28;20092;-75
2024/01/29 04:32:20;;;;;;;16.80;6.00;;;;;;;2.67;100.00;102344.00;4992402;28;20037;-75
2024/01/29 04:34:45;;;;;;;18.30;6.82;;;;;;;2.62;100.00;102352.91;5012523;28;20112;-75
2024/01/29 04:37:11;;;;;;;18.77;6.57;;;;;;;2.64;100.00;102358.19;5014550;28;20022;-75
2024/01/29 04:39:39;;;;;;;17.58;6.68;;;;;;;2.62;100.00;102349.34;5012296;28;20068;-75
2024/01/29 04:42:06;;;;;;;16.13;5.72;;;;;;;2.58;100.00;102350.31;5013263;28;20043;-75
2024/01/29 04:44:31;;;;;;;18.88;6.68;;;;;;;2.56;100.00;102357.41;5015641;28;20481;-75
2024/01/29 04:46:58;;;;;;;19.00;6.30;;;;;;;2.56;100.00;102353.00;4995531;28;20116;-75
2024/01/29 04:49:23;;;;;;;19.35;6.70;;;;;;;2.52;100.00;102364.56;4997238;28;20547;-75
2024/01/29 04:51:48;;;;;;;17.17;6.25;;;;;;;2.49;100.00;102355.75;5011462;28;20025;-75
2024/01/29 04:54:14;;;;;;;18.00;6.28;;;;;;;2.41;100.00;102359.41;4995525;28;20018;-75
2024/01/29 04:56:39;;;;;;;18.17;5.80;;;;;;;2.36;100.00;102358.59;5012566;28;20239;-75
2024/01/29 04:59:04;;;;;;;18.73;6.30;;;;;;;2.30;100.00;102357.81;4996653;28;20536;-75
2024/01/29 05:01:30;;;;;;;18.30;7.07;;;;;;;2.29;100.00;102351.63;4994970;28;20029;-75
2024/01/29 05:03:55;;;;;;;17.38;6.18;;;;;;;2.23;100.00;102354.38;4993710;28;20428;-75
2024/01/29 05:06:21;;;;;;;16.48;6.28;;;;;;;2.19;100.00;102352.66;4994014;28;20026;-75
2024/01/29 05:08:46;;;;;;;16.80;6.15;;;;;;;2.14;100.00;102355.38;5016106;28;20056;-75
2024/01/29 05:11:11;;;;;;;15.93;5.75;;;;;;;2.12;100.00;102353.66;4999321;28;20449;-75
2024/01/29 05:13:37;;;;;;;20.02;7.05;;;;;;;2.10;100.00;102351.88;4998877;28;20021;-75
2024/01/29 05:16:02;;;;;;;15.57;5.57;;;;;;;2.08;100.00;102359.00;5015265;28;20040;-75
2024/01/29 05:18:27;;;;;;;16.50;5.82;;;;;;;2.08;100.00;102351.03;5014467;28;20062;-75
2024/01/29 05:20:53;;;;;;;18.75;5.95;;;;;;;2.10;100.00;102354.53;4998757;28;20029;-75
2024/01/29 05:23:18;;;;;;;19.95;6.40;;;;;;;2.17;100.00;102351.81;5015879;28;20010;-75
2024/01/29 05:25:44;;;;;;;17.35;6.07;;;;;;;2.19;100.00;102358.84;5016634;28;20094;-75
2024/01/29 05:28:09;;;;;;;20.92;7.22;;;;;;;2.19;100.00;102355.31;4997356;28;20393;-75
2024/01/29 05:30:35;;;;;;;17.65;6.72;;;;;;;2.24;100.00;102348.16;5015403;28;20068;-75
2024/01/29 05:33:00;;;;;;;20.15;6.78;;;;;;;2.27;100.00;102354.31;5012168;28;20091;-75
2024/01/29 05:35:25;;;;;;;17.00;6.10;;;;;;;2.32;100.00;102359.53;4995574;28;20076;-75
2024/01/29 05:37:51;;;;;;;19.45;6.35;;;;;;;2.32;100.00;102351.59;5013371;28;20105;-75
2024/01/29 05:40:16;;;;;;;19.38;5.78;;;;;;;2.29;100.00;102353.41;5016494;28;20022;-75
2024/01/29 05:42:42;;;;;;;16.83;5.57;;;;;;;2.33;100.00;102347.16;5011575;28;20025;-75
2024/01/29 05:45:07;;;;;;;13.80;5.40;;;;;;;2.36;100.00;102353.31;4991816;28;20216;-75
2024/01/29 05:47:33;;;;;;;18.70;6.30;;;;;;;2.40;100.00;102355.00;5008010;28;20533;-75
2024/01/29 05:49:59;;;;;;;20.08;5.97;;;;;;;2.42;100.00;102360.28;5008023;28;20033;-75
2024/01/29 05:52:24;;;;;;;18.05;6.38;;;;;;;2.45;100.00;102355.81;5008409;28;20412;-75
2024/01/29 05:54:49;;;;;;;18.48;6.53;;;;;;;2.49;100.00;102358.41;5006102;28;20037;-75
2024/01/29 05:57:17;;;;;;;16.65;5.90;;;;;;;2.52;100.00;102366.31;4989450;28;20030;-75
2024/01/29 05:59:42;;;;;;;18.73;6.28;;;;;;;2.54;100.00;102368.06;5002738;28;20041;-75
2024/01/29 06:02:07;;;;;;;17.05;5.72;;;;;;;2.55;100.00;102368.97;4989223;28;20031;-75
2024/01/29 06:04:33;;;;;;;19.67;6.57;;;;;;;2.58;100.00;102363.59;4991590;28;20017;-75
2024/01/29 06:06:58;;;;;;;17.50;6.15;;;;;;;2.61;100.00;102363.53;4984257;28;20373;-75
2024/01/29 06:09:24;;;;;;;15.95;5.80;;;;;;;2.66;100.00;102360.81;5013924;28;20062;-74
2024/01/29 06:11:53;;;;;;;17.15;6.60;;;;;;;2.71;100.00;102365.16;5005431;28;20032;-74
2024/01/29 06:14:18;;;;;;;18.23;5.97;;;;;;;2.75;100.00;102369.53;5006764;28;20061;-75
2024/01/29 06:16:44;;;;;;;18.13;6.47;;;;;;;2.81;100.00;102376.47;5020602;28;20030;-75
2024/01/29 06:19:17;;;;;;;20.05;6.70;;;;;;;2.84;100.00;102370.25;5005021;28;20034;-75
2024/01/29 06:21:43;;;;;;;20.17;7.53;;;;;;;2.91;100.00;102369.25;5005843;28;20041;-75
2024/01/29 06:24:09;;;;;;;18.63;6.57;;;;;;;2.96;100.00;102370.06;5020055;28;20030;-76
2024/01/29 06:26:35;;;;;;;19.67;6.15;;;;;;;2.99;100.00;102385.94;5004352;28;20064;-75
2024/01/29 06:29:00;;;;;;;20.50;7.38;;;;;;;2.99;100.00;102372.66;4997075;28;20510;-75
2024/01/29 06:31:25;;;;;;;18.30;6.82;;;;;;;3.01;100.00;102378.81;4989585;28;20103;-75
2024/01/29 06:33:54;;;;;;;19.13;6.30;;;;;;;3.01;100.00;102381.47;5003778;28;20037;-75
2024/01/29 06:36:19;;;;;;;16.38;5.82;;;;;;;3.03;100.00;102387.66;4987896;28;20104;-75
2024/01/29 06:38:45;;;;;;;19.95;7.03;;;;;;;3.02;100.00;102388.53;5007272;28;20034;-75
2024/01/29 06:41:24;;;;;;;18.17;6.35;;;;;;;3.03;100.00;102392.97;5002875;28;20037;-75
2024/01/29 06:43:50;;;;;;;18.13;6.28;;;;;;;3.03;100.00;102392.06;4984680;28;20949;-75
2024/01/29 06:46:15;;;;;;;17.73;6.05;;;;;;;3.05;100.00;102388.50;4988825;28;20167;-75
2024/01/29 06:48:41;;;;;;;17.80;6.15;;;;;;;3.05;100.00;102391.16;5005864;28;20484;-75
2024/01/29 06:51:06;;;;;;;20.60;6.55;;;;;;;3.05;100.00;102388.50;4999584;28;20030;-76
2024/01/29 06:53:35;;;;;;;17.27;6.13;;;;;;;3.05;100.00;102383.19;4988442;28;20037;-75
2024/01/29 06:56:04;;;;;;;17.33;6.27;;;;;;;3.03;100.00;102386.75;4999592;28;20043;-75
2024/01/29 06:58:36;;;;;;;20.23;6.05;;;;;;;2.99;100.00;102393.91;5002001;28;20109;-75
2024/01/29 07:01:01;;;;;;;18.13;6.22;;;;;;;3.01;100.00;102394.75;4985712;28;20462;-75
2024/01/29 07:03:27;;;;;;;16.55;5.78;;;;;;;3.00;100.00;102395.63;5005805;28;20057;-75
2024/01/29 07:05:53;;;;;;;17.45;5.50;;;;;;;3.00;100.00;102410.72;5003630;28;20033;-75
2024/01/29 07:08:18;;;;;;;18.42;5.40;;;;;;;2.97;100.00;102408.97;4985979;28;20025;-76
2024/01/29 07:10:44;;;;;;;19.25;6.40;;;;;;;3.02;100.00;102416.91;4991173;28;20587;-75
2024/01/29 07:13:10;;;;;;;20.05;7.18;;;;;;;2.98;100.00;102416.91;4986929;28;20030;-75
2024/01/29 07:15:35;;;;;;;18.70;6.40;;;;;;;2.98;100.00;102416.06;4985778;28;20101;-75
2024/01/29 07:18:01;;;;;;;16.65;5.80;;;;;;;3.00;100.00;102421.34;4987609;28;20029;-75
2024/01/29 07:20:31;;;;;;;17.20;6.43;;;;;;;2.94;100.00;102430.28;4988916;28;20117;-75
2024/01/29 07:22:57;;;;;;;18.77;6.25;;;;;;;2.94;100.00;102432.94;4986890;28;20035;-75
2024/01/29 07:25:22;;;;;;;17.65;5.47;;;;;;;2.94;100.00;102433.84;4984908;28;20034;-75
2024/01/29 07:27:47;;;;;;;18.83;6.32;;;;;;;2.90;100.00;102437.44;5003387;28;20505;-75
2024/01/29 07:30:13;;;;;;;19.33;6.88;;;;;;;2.89;100.00;102438.31;4986695;28;20030;-75
2024/01/29 07:32:39;;;;;;;17.17;6.63;;;;;;;2.82;100.00;102441.09;5002095;28;20022;-75
2024/01/29 07:35:06;;;;;;;16.40;6.00;;;;;;;2.79;100.00;102442.03;4987138;28;20490;-75
2024/01/29 07:37:31;;;;;;;17.95;6.03;;;;;;;2.79;100.00;102436.72;5000904;28;20105;-75
2024/01/29 07:39:56;;;;;;;19.65;7.70;;;;;;;2.83;100.00;102445.53;4996455;28;20060;-74
2024/01/29 07:42:22;;;;;;;18.98;6.90;;;;;;;2.84;100.00;102444.59;5001600;28;20034;-74
2024/01/29 07:44:48;;;;;;;18.85;6.82;;;;;;;2.83;100.00;102445.53;5000830;28;20034;-74
2024/01/29 07:47:14;;;;;;;17.42;6.07;;;;;;;2.90;100.00;102444.50;5001402;28;20037;-75
2024/01/29 07:49:39;;;;;;;18.92;6.63;;;;;;;2.94;100.00;102456.84;5017943;28;20028;-74
2024/01/29 07:52:05;;;;;;;18.80;6.68;;;;;;;2.97;100.00;102452.38;5013689;28;20076;-75
2024/01/29 07:54:30;;;;;;;19.60;6.80;;;;;;;3.04;100.00;102445.16;5016368;28;20045;-75
2024/01/29 07:56:55;;;;;;;18.67;6.32;;;;;;;3.09;100.00;102445.97;5016193;28;20046;-75
2024/01/29 07:59:21;;;;;;;16.48;6.28;;;;;;;3.18;100.00;102452.03;5001965;28;20038;-74
2024/01/29 08:01:46;;;;;;;16.55;6.25;;;;;;;3.23;100.00;102448.41;5016773;28;20044;-75
2024/01/29 08:04:11;;;;;;;18.73;6.90;;;;;;;3.33;100.00;102449.13;5016735;28;20062;-75
2024/01/29 08:06:37;;;;;;;19.05;7.18;;;;;;;3.41;100.00;102448.97;5015625;28;20030;-74
2024/01/29 08:09:06;;;;;;;17.25;6.97;;;;;;;3.48;100.00;102453.28;5016307;28;20033;-74
2024/01/29 08:11:32;;;;;;;18.13;6.63;;;;;;;3.54;100.00;102449.66;4998778;28;20098;-75
2024/01/29 08:14:01;;;;;;;18.23;6.75;;;;;;;3.58;100.00;102444.25;5017569;28;20034;-75
2024/01/29 08:16:29;;;;;;;19.33;6.78;;;;;;;3.65;100.00;102455.66;5000057;28;20034;-75
2024/01/29 08:18:56;;;;;;;18.65;6.43;;;;;;;3.71;100.00;102457.31;5017626;28;20030;-74
2024/01/29 08:21:21;;;;;;;17.08;7.53;;;;;;;3.77;100.00;102459.88;5019418;28;20045;-75
2024/01/29 08:23:46;;;;;;;19.15;8.05;;;;;;;3.81;100.00;102462.44;4999721;28;20026;-75
2024/01/29 08:26:15;;;;;;;19.20;7.38;;;;;;;3.85;100.00;102460.56;4997216;28;20470;-75
2024/01/29 08:28:40;;;;;;;19.83;6.95;;;;;;;3.90;100.00;102461.38;5017009;28;20041;-75
2024/01/29 08:31:06;;;;;;;18.70;6.97;;;;;;;3.96;100.00;102455.06;5001852;28;20057;-75
2024/01/29 08:33:32;;;;;;;20.38;7.38;;;;;;;4.02;100.00;102449.63;5015783;28;20046;-75
2024/01/29 08:35:58;;;;;;;18.30;7.45;;;;;;;4.06;100.00;102455.78;5015173;28;20048;-75
2024/01/29 08:38:23;;;;;;;19.80;7.15;;;;;;;4.10;100.00;102455.69;5015705;28;20109;-75
2024/01/29 08:40:49;;;;;;;19.90;8.15;;;;;;;4.15;100.00;102453.78;5015548;28;20030;-75
2024/01/29 08:43:15;;;;;;;20.73;8.20;;;;;;;4.17;100.00;102459.97;5014102;28;20014;-75
2024/01/29 08:45:40;;;;;;;17.75;6.50;;;;;;;4.19;100.00;102455.47;5017458;28;20022;-75
2024/01/29 08:48:06;;;;;;;19.73;7.60;;;;;;;4.23;100.00;102458.06;5003666;28;20032;-75
2024/01/29 08:50:32;;;;;;;20.70;7.03;;;;;;;4.24;100.00;102449.19;5018986;28;20025;-73
2024/01/29 08:52:58;;;;;;;19.63;8.15;;;;;;;4.27;100.00;102451.78;5007383;28;20066;-73
2024/01/29 08:55:23;;;;;;;18.60;7.43;;;;;;;4.31;100.00;102450.81;5019319;28;20105;-73
2024/01/29 08:57:49;;;;;;;18.80;7.38;;;;;;;4.36;100.00;102459.56;5005885;28;20092;-74
2024/01/29 09:00:15;;;;;;;23.20;7.68;;;;;;;4.38;100.00;102461.28;5022869;28;20030;-74
2024/01/29 09:02:41;;;;;;;19.83;7.72;;;;;;;4.41;100.00;102452.38;5023774;28;20098;-74
2024/01/29 09:05:07;;;;;;;17.25;7.05;;;;;;;4.44;100.00;102452.28;5009843;28;20068;-74
2024/01/29 09:07:33;;;;;;;20.08;7.40;;;;;;;4.48;100.00;102451.31;5006047;28;20018;-74
2024/01/29 09:09:58;;;;;;;21.83;8.35;;;;;;;4.50;100.00;102452.16;5020524;28;20069;-75
2024/01/29 09:12:23;;;;;;;18.20;7.30;;;;;;;4.53;100.00;102460.06;5021421;28;20309;-75
2024/01/29 09:14:48;;;;;;;20.60;8.32;;;;;;;4.55;100.00;102449.38;5005635;28;20030;-75
2024/01/29 09:17:14;;;;;;;19.35;7.18;;;;;;;4.59;100.00;102448.41;5024552;28;20030;-75
2024/01/29 09:19:39;;;;;;;21.17;7.50;;;;;;;4.64;100.00;102443.88;5023035;28;20014;-75
2024/01/29 09:22:04;;;;;;;18.67;7.05;;;;;;;4.68;100.00;102450.00;5023822;28;20030;-75
2024/01/29 09:24:30;;;;;;;20.15;7.32;;;;;;;4.71;100.00;102441.94;5000561;28;20157;-75
2024/01/29 09:26:55;;;;;;;19.33;7.78;;;;;;;4.75;100.00;102458.72;5004487;28;20108;-75
2024/01/29 09:29:20;;;;;;;20.50;8.02;;;;;;;4.79;100.00;102453.28;5019305;28;20041;-75
2024/01/29 09:31:46;;;;;;;19.30;7.63;;;;;;;4.82;100.00;102458.53;5017248;28;20060;-75
2024/01/29 09:34:11;;;;;;;18.92;7.75;;;;;;;4.88;100.00;102463.72;5020956;28;20030;-75
2024/01/29 09:36:36;;;;;;;18.58;7.18;;;;;;;4.93;100.00;102460.06;5013347;28;20026;-75
2024/01/29 09:39:02;;;;;;;19.95;7.28;;;;;;;4.98;100.00;102464.38;5001763;28;20176;-75
2024/01/29 09:41:34;;;;;;;20.65;8.02;;;;;;;5.05;100.00;102473.09;5007011;28;20054;-75
2024/01/29 09:44:04;;;;;;;20.08;7.97;;;;;;;5.11;100.00;102472.97;5004330;28;20026;-75
2024/01/29 09:46:31;;;;;;;20.55;8.00;;;;;;;5.20;100.00;102463.88;5002614;28;20298;-75
2024/01/29 09:48:58;;;;;;;19.42;8.02;;;;;;;5.26;100.00;102474.38;5006134;28;20041;-75
2024/01/29 09:51:25;;;;;;;19.67;7.45;;;;;;;5.33;100.00;102477.75;5021718;28;20062;-75
2024/01/29 09:53:51;;;;;;;20.65;7.72;;;;;;;5.41;100.00;102478.44;5008008;28;20025;-75
2024/01/29 09:56:17;;;;;;;20.85;8.88;;;;;;;5.45;100.00;102474.78;5004483;28;20026;-75
2024/01/29 09:58:42;;;;;;;20.42;7.95;;;;;;;5.53;100.00;102477.25;5022608;28;20028;-75
2024/01/29 10:01:11;;;;;;;22.17;8.57;;;;;;;5.58;100.00;102480.69;5003696;28;20442;-75
2024/01/29 10:03:38;;;;;;;19.27;7.35;;;;;;;5.63;100.00;102485.91;5019075;28;20030;-75
2024/01/29 10:06:04;;;;;;;20.80;8.63;;;;;;;5.68;100.00;102483.97;5003900;28;20113;-76
2024/01/29 10:08:32;;;;;;;21.23;7.28;;;;;;;5.74;100.00;102489.13;4999207;28;20556;-76
2024/01/29 10:10:57;;;;;;;19.25;8.40;;;;;;;5.79;100.00;102484.56;4994452;28;20089;-76
2024/01/29 10:13:23;;;;;;;20.38;8.05;;;;;;;5.84;100.00;102488.00;5012316;28;20025;-76
2024/01/29 10:15:49;;;;;;;21.02;7.88;;;;;;;5.90;100.00;102487.81;5018794;28;20025;-76
2024/01/29 10:18:16;;;;;;;19.85;8.63;;;;;;;5.96;100.00;102489.44;5002216;28;20057;-76
2024/01/29 10:20:41;;;;;;;22.10;8.82;;;;;;;6.01;100.00;102495.56;4996967;28;20021;-76
2024/01/29 10:23:07;;;;;;;21.67;8.68;;;;;;;6.06;100.00;102490.09;5019037;28;20045;-76
2024/01/29 10:25:34;;;;;;;22.23;8.43;;;;;;;6.12;100.00;102497.94;4999833;28;20378;-76
2024/01/29 10:28:12;;;;;;;20.05;7.95;;;;;;;6.15;100.00;102503.19;5015606;28;20059;-76
2024/01/29 10:30:39;;;;;;;20.77;8.00;;;;;;;6.21;100.00;102494.09;5002092;28;20125;-76
2024/01/29 10:33:05;;;;;;;21.33;8.88;;;;;;;6.28;100.00;102503.69;5001043;28;20048;-76
2024/01/29 10:35:30;;;;;;;22.10;8.73;;;;;;;6.34;100.00;102495.53;5003828;28;20026;-76
2024/01/29 10:38:03;;;;;;;21.40;8.13;;;;;;;6.41;100.00;102491.78;5002719;28;20036;-76
2024/01/29 10:40:29;;;;;;;21.58;9.77;;;;;;;6.47;100.00;102504.03;5001505;28;20124;-75
2024/01/29 10:42:58;;;;;;;21.92;8.52;;;;;;;6.53;100.00;102503.88;5003151;28;20404;-76
2024/01/29 10:45:24;;;;;;;20.42;8.38;;;;;;;6.59;100.00;102508.16;4995742;28;20053;-75
2024/01/29 10:47:54;;;;;;;23.13;9.07;;;;;;;6.65;100.00;102499.97;5002391;28;20067;-75
2024/01/29 10:50:23;;;;;;;22.13;8.95;;;;;;;6.71;100.00;102501.59;5021012;28;20085;-76
2024/01/29 10:52:49;;;;;;;21.13;8.60;;;;;;;6.77;100.00;102493.38;5004306;28;20068;-76
2024/01/29 10:55:15;;;;;;;20.05;8.18;;;;;;;6.83;100.00;102495.84;5021160;28;20030;-76
2024/01/29 10:57:46;;;;;;;19.88;8.32;;;;;;;6.89;100.00;102492.97;5016665;28;20026;-76
2024/01/29 11:00:14;;;;;;;22.52;8.85;;;;;;;6.95;100.00;102498.13;5016344;28;20021;-76
2024/01/29 11:02:40;;;;;;;21.90;8.77;;;;;;;7.01;100.00;102499.72;5023018;28;20030;-76
2024/01/29 11:05:07;;;;;;;22.17;9.02;;;;;;;7.08;100.00;102492.41;5011746;28;20026;-76
2024/01/29 11:07:33;;;;;;;22.50;9.20;;;;;;;7.13;100.00;102490.44;5019891;28;20057;-76
2024/01/29 11:10:16;;;;;;;21.90;9.45;;;;;;;7.17;100.00;102498.34;5003496;28;20036;-77
2024/01/29 11:12:43;;;;;;;21.05;8.57;;;;;;;7.25;100.00;102498.06;5004666;28;20094;-77